sensor_id;sensor_type;location;lat;lon;timestamp;pressure;altitude;pressure_sealevel;temperature;humidity
7168;BME280;3625;51.762;14.320;2023-02-02T00:02:19;100106.13;;;3.88;100.00
7168;BME280;3625;51.762;14.320;2023-02-02T00:04:54;100095.66;;;3.94;100.00
7168;BME280;3625;51.762;14.320;2023-02-02T00:07:23;100113.09;;;4.04;100.00
7168;BME280;3625;51.762;14.320;2023-02-02T00:10:27;100101.75;;;4.05;100.00
7168;BME280;3625;51.762;14.320;2023-02-02T00:12:58;100109.56;;;4.08;100.00
7168;BME280;3625;51.762;14.320;2023-02-02T00:15:27;100110.44;;;4.07;100.00
7168;BME280;3625;51.762;14.320;2023-02-02T00:18:03;100102.59;;;4.10;100.00
7168;BME280;3625;51.762;14.320;2023-02-02T00:20:49;100107.84;;;4.14;100.00
7168;BME280;3625;51.762;14.320;2023-02-02T00:23:45;100044.19;;;3.80;100.00
7168;BME280;3625;51.762;14.320;2023-02-02T00:26:14;100107.81;;;4.19;100.00
7168;BME280;3625;51.762;14.320;2023-02-02T00:28:46;100096.44;;;4.31;100.00
7168;BME280;3625;51.762;14.320;2023-02-02T00:31:20;100099.06;;;4.32;100.00
7168;BME280;3625;51.762;14.320;2023-02-02T00:33:59;100091.19;;;4.35;100.00
7168;BME280;3625;51.762;14.320;2023-02-02T00:36:28;100084.22;;;4.39;100.00
7168;BME280;3625;51.762;14.320;2023-02-02T00:39:39;100084.19;;;4.46;100.00
7168;BME280;3625;51.762;14.320;2023-02-02T00:42:37;100073.69;;;4.45;100.00
7168;BME280;3625;51.762;14.320;2023-02-02T00:45:17;100076.34;;;4.40;100.00
7168;BME280;3625;51.762;14.320;2023-02-02T00:47:48;100082.47;;;4.36;100.00
7168;BME280;3625;51.762;14.320;2023-02-02T00:50:21;100084.22;;;4.28;100.00
7168;BME280;3625;51.762;14.320;2023-02-02T00:57:13;100067.66;;;4.18;100.00
7168;BME280;3625;51.762;14.320;2023-02-02T00:59:55;100065.97;;;4.04;100.00
7168;BME280;3625;51.762;14.320;2023-02-02T01:02:27;100066.81;;;4.18;100.00
7168;BME280;3625;51.762;14.320;2023-02-02T01:04:58;100075.50;;;4.29;100.00
7168;BME280;3625;51.762;14.320;2023-02-02T01:07:35;100063.25;;;4.40;100.00
7168;BME280;3625;51.762;14.320;2023-02-02T01:10:17;100065.88;;;4.40;100.00
7168;BME280;3625;51.762;14.320;2023-02-02T01:12:56;100067.59;;;4.46;100.00
7168;BME280;3625;51.762;14.320;2023-02-02T01:15:25;100066.72;;;4.45;100.00
7168;BME280;3625;51.762;14.320;2023-02-02T01:17:58;100071.94;;;4.44;100.00
7168;BME280;3625;51.762;14.320;2023-02-02T01:21:15;100066.72;;;4.45;100.00
7168;BME280;3625;51.762;14.320;2023-02-02T01:23:45;100072.81;;;4.43;100.00
7168;BME280;3625;51.762;14.320;2023-02-02T01:26:14;100072.81;;;4.44;100.00
7168;BME280;3625;51.762;14.320;2023-02-02T01:28:44;100070.22;;;4.44;100.00
7168;BME280;3625;51.762;14.320;2023-02-02T01:31:57;100068.47;;;4.49;100.00
7168;BME280;3625;51.762;14.320;2023-02-02T01:34:28;100072.78;;;4.50;100.00
7168;BME280;3625;51.762;14.320;2023-02-02T01:37:04;100057.06;;;4.52;100.00
7168;BME280;3625;51.762;14.320;2023-02-02T01:39:37;100053.59;;;4.56;100.00
7168;BME280;3625;51.762;14.320;2023-02-02T01:42:14;100050.97;;;4.58;100.00
7168;BME280;3625;51.762;14.320;2023-02-02T01:52:18;100043.94;;;4.66;100.00
7168;BME280;3625;51.762;14.320;2023-02-02T01:55:04;100048.31;;;4.64;100.00
7168;BME280;3625;51.762;14.320;2023-02-02T01:57:41;100048.31;;;4.67;100.00
7168;BME280;3625;51.762;14.320;2023-02-02T02:00:15;100043.84;;;4.81;100.00
7168;BME280;3625;51.762;14.320;2023-02-02T02:02:56;100049.97;;;4.81;100.00
7168;BME280;3625;51.762;14.320;2023-02-02T02:05:28;100052.53;;;4.84;100.00
7168;BME280;3625;51.762;14.320;2023-02-02T02:08:07;100054.25;;;4.93;100.00
7168;BME280;3625;51.762;14.320;2023-02-02T02:10:41;100055.09;;;5.01;100.00
7168;BME280;3625;51.762;14.320;2023-02-02T02:13:10;100055.94;;;5.02;100.00
7168;BME280;3625;51.762;14.320;2023-02-02T02:15:54;100049.03;;;4.91;100.00
7168;BME280;3625;51.762;14.320;2023-02-02T02:18:49;100051.59;;;4.98;100.00
7168;BME280;3625;51.762;14.320;2023-02-02T02:21:36;100068.16;;;5.06;100.00
7168;BME280;3625;51.762;14.320;2023-02-02T02:28:22;100054.16;;;5.07;100.00
7168;BME280;3625;51.762;14.320;2023-02-02T02:31:17;100046.31;;;5.08;100.00
7168;BME280;3625;51.762;14.320;2023-02-02T02:33:58;100041.00;;;5.14;100.00
7168;BME280;3625;51.762;14.320;2023-02-02T02:36:40;100048.91;;;5.08;100.00
7168;BME280;3625;51.762;14.320;2023-02-02T02:39:17;100046.19;;;5.25;100.00
7168;BME280;3625;51.762;14.320;2023-02-02T02:41:55;100048.81;;;5.20;100.00
7168;BME280;3625;51.762;14.320;2023-02-02T02:44:31;100053.19;;;5.20;100.00
7168;BME280;3625;51.762;14.320;2023-02-02T02:47:07;100046.19;;;5.23;100.00
7168;BME280;3625;51.762;14.320;2023-02-02T02:49:43;100054.09;;;5.19;100.00
7168;BME280;3625;51.762;14.320;2023-02-02T02:52:16;100051.44;;;5.25;100.00
7168;BME280;3625;51.762;14.320;2023-02-02T02:54:48;100054.84;;;5.36;100.00
7168;BME280;3625;51.762;14.320;2023-02-02T02:57:39;100050.50;;;5.34;100.00
7168;BME280;3625;51.762;14.320;2023-02-02T03:03:55;100064.47;;;5.36;100.00
7168;BME280;3625;51.762;14.320;2023-02-02T03:07:01;100057.50;;;5.31;100.00
7168;BME280;3625;51.762;14.320;2023-02-02T03:09:38;100072.28;;;5.40;100.00
7168;BME280;3625;51.762;14.320;2023-02-02T03:12:11;100063.59;;;5.35;100.00
7168;BME280;3625;51.762;14.320;2023-02-02T03:14:45;100060.94;;;5.37;100.00
7168;BME280;3625;51.762;14.320;2023-02-02T03:17:14;100064.34;;;5.48;100.00
7168;BME280;3625;51.762;14.320;2023-02-02T03:19:46;100065.22;;;5.50;100.00
7168;BME280;3625;51.762;14.320;2023-02-02T03:22:16;100073.09;;;5.48;100.00
7168;BME280;3625;51.762;14.320;2023-02-02T03:25:07;100065.25;;;5.45;100.00
7168;BME280;3625;51.762;14.320;2023-02-02T03:27:41;100087.97;;;5.46;100.00
7168;BME280;3625;51.762;14.320;2023-02-02T03:30:12;100081.91;;;5.41;100.00
7168;BME280;3625;51.762;14.320;2023-02-02T03:32:42;100075.72;;;5.48;100.00
7168;BME280;3625;51.762;14.320;2023-02-02T03:35:13;100073.97;;;5.49;100.00
7168;BME280;3625;51.762;14.320;2023-02-02T03:37:45;100064.34;;;5.49;100.00
7168;BME280;3625;51.762;14.320;2023-02-02T03:40:33;100049.53;;;5.44;100.00
7168;BME280;3625;51.762;14.320;2023-02-02T03:43:08;100072.28;;;5.40;100.00
7168;BME280;3625;51.762;14.320;2023-02-02T03:45:37;100079.22;;;5.49;100.00
7168;BME280;3625;51.762;14.320;2023-02-02T03:48:09;100084.47;;;5.46;100.00
7168;BME280;3625;51.762;14.320;2023-02-02T03:50:38;100083.56;;;5.53;100.00
7168;BME280;3625;51.762;14.320;2023-02-02T03:53:09;100086.22;;;5.50;100.00
7168;BME280;3625;51.762;14.320;2023-02-02T03:58:36;100087.91;;;5.54;100.00
7168;BME280;3625;51.762;14.320;2023-02-02T04:01:09;100095.81;;;5.51;100.00
7168;BME280;3625;51.762;14.320;2023-02-02T04:03:39;100104.56;;;5.50;100.00
7168;BME280;3625;51.762;14.320;2023-02-02T04:06:09;100108.06;;;5.53;100.00
7168;BME280;3625;51.762;14.320;2023-02-02T04:08:47;100107.22;;;5.45;100.00
7168;BME280;3625;51.762;14.320;2023-02-02T04:11:19;100128.19;;;5.51;100.00
7168;BME280;3625;51.762;14.320;2023-02-02T04:13:48;100126.47;;;5.44;100.00
7168;BME280;3625;51.762;14.320;2023-02-02T04:16:21;100124.69;;;5.46;100.00
7168;BME280;3625;51.762;14.320;2023-02-02T04:19:03;100138.72;;;5.42;100.00
7168;BME280;3625;51.762;14.320;2023-02-02T04:21:41;100138.78;;;5.35;100.00
7168;BME280;3625;51.762;14.320;2023-02-02T04:24:18;100151.03;;;5.31;100.00
7168;BME280;3625;51.762;14.320;2023-02-02T04:30:55;100137.16;;;5.12;100.00
7168;BME280;3625;51.762;14.320;2023-02-02T04:33:34;100148.47;;;5.20;100.00
7168;BME280;3625;51.762;14.320;2023-02-02T04:37:01;99975.19;;;4.21;100.00
7168;BME280;3625;51.762;14.320;2023-02-02T04:40:40;100163.34;;;5.18;100.00
7168;BME280;3625;51.762;14.320;2023-02-02T04:47:48;100168.66;;;5.06;100.00
7168;BME280;3625;51.762;14.320;2023-02-02T04:51:31;100173.06;;;4.98;100.00
7168;BME280;3625;51.762;14.320;2023-02-02T04:54:41;100178.34;;;4.89;100.00
7168;BME280;3625;51.762;14.320;2023-02-02T04:57:21;100186.19;;;4.92;100.00
7168;BME280;3625;51.762;14.320;2023-02-02T04:59:52;100187.03;;;5.00;100.00
7168;BME280;3625;51.762;14.320;2023-02-02T05:02:34;100179.19;;;4.96;100.00
7168;BME280;3625;51.762;14.320;2023-02-02T05:05:13;100177.47;;;4.90;100.00
7168;BME280;3625;51.762;14.320;2023-02-02T05:07:42;100184.44;;;4.92;100.00
7168;BME280;3625;51.762;14.320;2023-02-02T05:10:21;100187.91;;;4.96;100.00
7168;BME280;3625;51.762;14.320;2023-02-02T05:13:18;100194.91;;;4.99;100.00
7168;BME280;3625;51.762;14.320;2023-02-02T05:15:48;100207.09;;;5.03;100.00
7168;BME280;3625;51.762;14.320;2023-02-02T05:18:20;100211.47;;;5.04;100.00
7168;BME280;3625;51.762;14.320;2023-02-02T05:20:54;100215.00;;;4.95;100.00
7168;BME280;3625;51.762;14.320;2023-02-02T05:23:28;100209.75;;;4.95;100.00
7168;BME280;3625;51.762;14.320;2023-02-02T05:26:01;100212.41;;;4.89;100.00
7168;BME280;3625;51.762;14.320;2023-02-02T05:28:32;100222.00;;;4.88;100.00
7168;BME280;3625;51.762;14.320;2023-02-02T05:31:24;100228.06;;;5.03;100.00
7168;BME280;3625;51.762;14.320;2023-02-02T05:34:04;100223.72;;;5.00;100.00
7168;BME280;3625;51.762;14.320;2023-02-02T05:36:38;100227.22;;;4.93;100.00
7168;BME280;3625;51.762;14.320;2023-02-02T05:39:09;100226.38;;;4.89;100.00
7168;BME280;3625;51.762;14.320;2023-02-02T05:41:43;100241.22;;;4.89;100.00
7168;BME280;3625;51.762;14.320;2023-02-02T05:44:16;100242.97;;;4.90;100.00
7168;BME280;3625;51.762;14.320;2023-02-02T05:46:54;100247.34;;;4.85;100.00
7168;BME280;3625;51.762;14.320;2023-02-02T05:49:28;100253.44;;;4.93;100.00
7168;BME280;3625;51.762;14.320;2023-02-02T05:52:01;100256.97;;;4.89;100.00
7168;BME280;3625;51.762;14.320;2023-02-02T05:54:30;100270.94;;;4.85;100.00
7168;BME280;3625;51.762;14.320;2023-02-02T05:57:05;100277.06;;;4.78;100.00
7168;BME280;3625;51.762;14.320;2023-02-02T05:59:43;100284.09;;;4.64;100.00
7168;BME280;3625;51.762;14.320;2023-02-02T06:02:18;100284.97;;;4.75;100.00
7168;BME280;3625;51.762;14.320;2023-02-02T06:04:47;100296.28;;;4.81;100.00
7168;BME280;3625;51.762;14.320;2023-02-02T06:07:17;100296.28;;;4.80;100.00
7168;BME280;3625;51.762;14.320;2023-02-02T06:09:52;100300.66;;;4.82;100.00
7168;BME280;3625;51.762;14.320;2023-02-02T06:12:37;100303.28;;;4.82;100.00
7168;BME280;3625;51.762;14.320;2023-02-02T06:15:09;100306.75;;;4.84;100.00
7168;BME280;3625;51.762;14.320;2023-02-02T06:17:40;100312.03;;;4.81;100.00
7168;BME280;3625;51.762;14.320;2023-02-02T06:20:10;100314.63;;;4.87;100.00
7168;BME280;3625;51.762;14.320;2023-02-02T06:22:47;100313.75;;;4.90;100.00
7168;BME280;3625;51.762;14.320;2023-02-02T06:25:20;100323.38;;;4.80;100.00
7168;BME280;3625;51.762;14.320;2023-02-02T06:27:53;100329.47;;;4.79;100.00
7168;BME280;3625;51.762;14.320;2023-02-02T06:30:27;100333.88;;;4.83;100.00
7168;BME280;3625;51.762;14.320;2023-02-02T06:32:58;100331.22;;;4.80;100.00
7168;BME280;3625;51.762;14.320;2023-02-02T06:35:34;100348.69;;;4.90;100.00
7168;BME280;3625;51.762;14.320;2023-02-02T06:38:03;100341.69;;;4.94;100.00
7168;BME280;3625;51.762;14.320;2023-02-02T06:40:31;100342.59;;;4.90;100.00
7168;BME280;3625;51.762;14.320;2023-02-02T06:43:03;100338.22;;;4.92;100.00
7168;BME280;3625;51.762;14.320;2023-02-02T06:45:33;100348.69;;;4.98;100.00
7168;BME280;3625;51.762;14.320;2023-02-02T06:48:07;100343.41;;;5.03;100.00
7168;BME280;3625;51.762;14.320;2023-02-02T06:50:37;100348.66;;;5.06;100.00
7168;BME280;3625;51.762;14.320;2023-02-02T06:53:18;100350.44;;;5.08;100.00
7168;BME280;3625;51.762;14.320;2023-02-02T06:55:52;100360.03;;;5.03;100.00
7168;BME280;3625;51.762;14.320;2023-02-02T06:58:32;100360.03;;;5.03;100.00
7168;BME280;3625;51.762;14.320;2023-02-02T07:01:04;100363.53;;;4.99;100.00
7168;BME280;3625;51.762;14.320;2023-02-02T07:03:37;100377.50;;;5.07;100.00
7168;BME280;3625;51.762;14.320;2023-02-02T07:06:12;100381.00;;;5.12;100.00
7168;BME280;3625;51.762;14.320;2023-02-02T07:08:46;100398.47;;;5.10;100.00
7168;BME280;3625;51.762;14.320;2023-02-02T07:11:29;100394.13;;;5.18;100.00
7168;BME280;3625;51.762;14.320;2023-02-02T07:14:11;100404.59;;;5.17;100.00
7168;BME280;3625;51.762;14.320;2023-02-02T07:16:44;100420.34;;;5.17;100.00
7168;BME280;3625;51.762;14.320;2023-02-02T07:19:16;100418.59;;;5.17;100.00
7168;BME280;3625;51.762;14.320;2023-02-02T07:21:44;100411.56;;;5.22;100.00
7168;BME280;3625;51.762;14.320;2023-02-02T07:24:13;100422.06;;;5.24;100.00
7168;BME280;3625;51.762;14.320;2023-02-02T07:26:47;100422.06;;;5.25;100.00
7168;BME280;3625;51.762;14.320;2023-02-02T07:29:15;100424.69;;;5.25;100.00
7168;BME280;3625;51.762;14.320;2023-02-02T07:31:46;100436.03;;;5.34;100.00
7168;BME280;3625;51.762;14.320;2023-02-02T07:34:17;100438.66;;;5.30;100.00
7168;BME280;3625;51.762;14.320;2023-02-02T07:36:46;100439.53;;;5.34;100.00
7168;BME280;3625;51.762;14.320;2023-02-02T07:39:17;100449.16;;;5.40;100.00
7168;BME280;3625;51.762;14.320;2023-02-02T07:41:48;100457.00;;;5.46;100.00
7168;BME280;3625;51.762;14.320;2023-02-02T07:44:29;100456.13;;;5.48;100.00
7168;BME280;3625;51.762;14.320;2023-02-02T07:47:09;100462.22;;;5.55;100.00
7168;BME280;3625;51.762;14.320;2023-02-02T07:49:40;100465.72;;;5.55;100.00
7168;BME280;3625;51.762;14.320;2023-02-02T07:52:13;100468.34;;;5.57;100.00
7168;BME280;3625;51.762;14.320;2023-02-02T07:54:51;100467.47;;;5.62;100.00
7168;BME280;3625;51.762;14.320;2023-02-02T07:57:41;100477.97;;;5.67;100.00
7168;BME280;3625;51.762;14.320;2023-02-02T08:00:19;100481.47;;;5.67;100.00
7168;BME280;3625;51.762;14.320;2023-02-02T08:02:52;100477.97;;;5.70;100.00
7168;BME280;3625;51.762;14.320;2023-02-02T08:05:21;100478.81;;;5.72;100.00
7168;BME280;3625;51.762;14.320;2023-02-02T08:07:50;100484.91;;;5.83;100.00
7168;BME280;3625;51.762;14.320;2023-02-02T08:10:25;100487.53;;;5.80;100.00
7168;BME280;3625;51.762;14.320;2023-02-02T08:12:54;100487.53;;;5.80;100.00
7168;BME280;3625;51.762;14.320;2023-02-02T08:15:23;100503.31;;;5.86;100.00
7168;BME280;3625;51.762;14.320;2023-02-02T08:17:57;100501.56;;;5.91;100.00
7168;BME280;3625;51.762;14.320;2023-02-02T08:20:27;100510.31;;;5.93;100.00
7168;BME280;3625;51.762;14.320;2023-02-02T08:23:02;100496.31;;;5.93;100.00
7168;BME280;3625;51.762;14.320;2023-02-02T08:25:37;100501.56;;;5.91;100.00
7168;BME280;3625;51.762;14.320;2023-02-02T08:28:09;100513.78;;;5.97;100.00
7168;BME280;3625;51.762;14.320;2023-02-02T08:30:52;100514.66;;;5.99;100.00
7168;BME280;3625;51.762;14.320;2023-02-02T08:33:28;100513.75;;;6.07;100.00
7168;BME280;3625;51.762;14.320;2023-02-02T08:35:59;100520.75;;;6.05;100.00
7168;BME280;3625;51.762;14.320;2023-02-02T08:38:33;100523.41;;;5.99;100.00
7168;BME280;3625;51.762;14.320;2023-02-02T08:41:09;100521.63;;;6.09;100.00
7168;BME280;3625;51.762;14.320;2023-02-02T08:43:41;100523.38;;;6.15;100.00
7168;BME280;3625;51.762;14.320;2023-02-02T08:46:14;100528.63;;;6.16;100.00
7168;BME280;3625;51.762;14.320;2023-02-02T08:48:47;100534.72;;;6.23;100.00
7168;BME280;3625;51.762;14.320;2023-02-02T08:51:18;100533.00;;;6.16;100.00
7168;BME280;3625;51.762;14.320;2023-02-02T08:53:54;100542.66;;;6.12;100.00
7168;BME280;3625;51.762;14.320;2023-02-02T08:56:23;100540.03;;;6.00;100.00
7168;BME280;3625;51.762;14.320;2023-02-02T08:58:53;100532.19;;;5.91;100.00
7168;BME280;3625;51.762;14.320;2023-02-02T09:01:28;100541.81;;;5.86;100.00
7168;BME280;3625;51.762;14.320;2023-02-02T09:04:05;100547.94;;;5.94;100.00
7168;BME280;3625;51.762;14.320;2023-02-02T09:06:41;100552.25;;;6.16;100.00
7168;BME280;3625;51.762;14.320;2023-02-02T09:09:15;100553.09;;;6.27;100.00
7168;BME280;3625;51.762;14.320;2023-02-02T09:11:48;100546.94;;;6.36;100.00
7168;BME280;3625;51.762;14.320;2023-02-02T09:14:17;100561.75;;;6.52;99.32
7168;BME280;3625;51.762;14.320;2023-02-02T09:16:50;100551.25;;;6.57;99.90
7168;BME280;3625;51.762;14.320;2023-02-02T09:19:23;100558.19;;;6.68;100.00
7168;BME280;3625;51.762;14.320;2023-02-02T09:21:54;100566.91;;;6.75;100.00
7168;BME280;3625;51.762;14.320;2023-02-02T09:24:32;100572.19;;;6.69;100.00
7168;BME280;3625;51.762;14.320;2023-02-02T09:27:09;100581.06;;;6.45;100.00
7168;BME280;3625;51.762;14.320;2023-02-02T09:29:43;100599.56;;;5.99;100.00
7168;BME280;3625;51.762;14.320;2023-02-02T09:32:13;100598.69;;;5.58;100.00
7168;BME280;3625;51.762;14.320;2023-02-02T09:35:03;100596.03;;;5.18;100.00
7168;BME280;3625;51.762;14.320;2023-02-02T09:37:39;100591.63;;;4.99;100.00
7168;BME280;3625;51.762;14.320;2023-02-02T09:40:15;100592.44;;;4.86;100.00
7168;BME280;3625;51.762;14.320;2023-02-02T09:43:00;100590.72;;;4.91;100.00
7168;BME280;3625;51.762;14.320;2023-02-02T09:45:50;100592.47;;;4.92;100.00
7168;BME280;3625;51.762;14.320;2023-02-02T09:48:44;100601.22;;;4.96;100.00
7168;BME280;3625;51.762;14.320;2023-02-02T09:51:22;100602.97;;;5.00;100.00
7168;BME280;3625;51.762;14.320;2023-02-02T09:54:18;100611.78;;;5.18;100.00
7168;BME280;3625;51.762;14.320;2023-02-02T09:56:54;100611.78;;;5.32;100.00
7168;BME280;3625;51.762;14.320;2023-02-02T09:59:33;100609.19;;;5.59;100.00
7168;BME280;3625;51.762;14.320;2023-02-02T10:02:14;100610.06;;;5.99;100.00
7168;BME280;3625;51.762;14.320;2023-02-02T10:04:55;100621.41;;;6.27;100.00
7168;BME280;3625;51.762;14.320;2023-02-02T10:07:39;100617.88;;;6.33;100.00
7168;BME280;3625;51.762;14.320;2023-02-02T10:10:15;100644.19;;;6.30;100.00
7168;BME280;3625;51.762;14.320;2023-02-02T10:12:57;100647.72;;;5.94;100.00
7168;BME280;3625;51.762;14.320;2023-02-02T10:15:36;100631.03;;;5.63;100.00
7168;BME280;3625;51.762;14.320;2023-02-02T10:18:13;100623.16;;;5.54;100.00
7168;BME280;3625;51.762;14.320;2023-02-02T10:20:56;100639.81;;;5.51;100.00
7168;BME280;3625;51.762;14.320;2023-02-02T10:23:39;100623.19;;;5.57;100.00
7168;BME280;3625;51.762;14.320;2023-02-02T10:26:17;100629.31;;;5.65;100.00
7168;BME280;3625;51.762;14.320;2023-02-02T10:29:00;100631.06;;;5.74;100.00
7168;BME280;3625;51.762;14.320;2023-02-02T10:31:43;100616.19;;;5.82;100.00
7168;BME280;3625;51.762;14.320;2023-02-02T10:34:23;100615.31;;;5.98;100.00
7168;BME280;3625;51.762;14.320;2023-02-02T10:37:13;100615.31;;;5.99;100.00
7168;BME280;3625;51.762;14.320;2023-02-02T10:40:00;100626.72;;;6.04;100.00
7168;BME280;3625;51.762;14.320;2023-02-02T10:42:40;100622.31;;;6.08;100.00
7168;BME280;3625;51.762;14.320;2023-02-02T10:45:14;100617.06;;;6.10;100.00
7168;BME280;3625;51.762;14.320;2023-02-02T10:47:50;100631.88;;;6.42;100.00
7168;BME280;3625;51.762;14.320;2023-02-02T10:50:20;100620.50;;;6.45;100.00
7168;BME280;3625;51.762;14.320;2023-02-02T10:52:55;100630.88;;;6.78;100.00
7168;BME280;3625;51.762;14.320;2023-02-02T10:55:35;100629.00;;;7.02;100.00
7168;BME280;3625;51.762;14.320;2023-02-02T10:58:14;100637.84;;;6.92;95.91
7168;BME280;3625;51.762;14.320;2023-02-02T11:00:50;100636.16;;;6.77;97.76
7168;BME280;3625;51.762;14.320;2023-02-02T11:03:28;100639.59;;;6.90;98.64
7168;BME280;3625;51.762;14.320;2023-02-02T11:06:02;100644.84;;;6.99;97.77
7168;BME280;3625;51.762;14.320;2023-02-02T11:08:53;100644.88;;;6.90;98.23
7168;BME280;3625;51.762;14.320;2023-02-02T11:11:30;100638.59;;;7.15;96.86
7168;BME280;3625;51.762;14.320;2023-02-02T11:14:13;100644.69;;;7.26;94.78
7168;BME280;3625;51.762;14.320;2023-02-02T11:16:46;100648.16;;;7.28;97.03
7168;BME280;3625;51.762;14.320;2023-02-02T11:19:32;100651.66;;;7.27;96.65
7168;BME280;3625;51.762;14.320;2023-02-02T11:22:09;100658.75;;;7.19;94.72
7168;BME280;3625;51.762;14.320;2023-02-02T11:24:53;100646.47;;;7.18;94.39
7168;BME280;3625;51.762;14.320;2023-02-02T11:27:39;100652.59;;;7.23;94.20
7168;BME280;3625;51.762;14.320;2023-02-02T11:30:19;100665.78;;;7.14;92.03
7168;BME280;3625;51.762;14.320;2023-02-02T11:32:50;100681.59;;;7.11;91.91
7168;BME280;3625;51.762;14.320;2023-02-02T11:35:21;100675.47;;;7.07;91.42
7168;BME280;3625;51.762;14.320;2023-02-02T11:37:59;100679.00;;;7.06;92.11
7168;BME280;3625;51.762;14.320;2023-02-02T11:40:39;100497.19;;;5.89;91.46
7168;BME280;3625;51.762;14.320;2023-02-02T11:43:17;100682.53;;;6.99;92.16
7168;BME280;3625;51.762;14.320;2023-02-02T11:45:57;100683.38;;;7.03;91.00
7168;BME280;3625;51.762;14.320;2023-02-02T11:48:36;100685.13;;;7.01;90.86
7168;BME280;3625;51.762;14.320;2023-02-02T11:51:21;100688.59;;;7.12;89.67
7168;BME280;3625;51.762;14.320;2023-02-02T11:54:04;100685.91;;;7.21;89.56
7168;BME280;3625;51.762;14.320;2023-02-02T11:56:49;100690.31;;;7.22;88.34
7168;BME280;3625;51.762;14.320;2023-02-02T11:59:38;100696.44;;;7.18;86.22
7168;BME280;3625;51.762;14.320;2023-02-02T12:02:27;100704.31;;;7.27;85.36
7168;BME280;3625;51.762;14.320;2023-02-02T12:05:33;100698.09;;;7.40;84.77
7168;BME280;3625;51.762;14.320;2023-02-02T12:08:03;100698.13;;;7.36;83.68
7168;BME280;3625;51.762;14.320;2023-02-02T12:10:37;100713.03;;;7.38;84.62
7168;BME280;3625;51.762;14.320;2023-02-02T12:13:25;100708.63;;;7.40;85.40
7168;BME280;3625;51.762;14.320;2023-02-02T12:16:11;100713.13;;;7.20;83.13
7168;BME280;3625;51.762;14.320;2023-02-02T12:18:54;100715.75;;;7.22;82.32
7168;BME280;3625;51.762;14.320;2023-02-02T12:21:37;100727.16;;;7.24;79.72
7168;BME280;3625;51.762;14.320;2023-02-02T12:24:26;100742.00;;;7.34;80.72
7168;BME280;3625;51.762;14.320;2023-02-02T12:27:12;100746.38;;;7.41;76.56
7168;BME280;3625;51.762;14.320;2023-02-02T12:30:02;100743.75;;;7.36;74.43
7168;BME280;3625;51.762;14.320;2023-02-02T12:32:57;100760.41;;;7.35;72.76
7168;BME280;3625;51.762;14.320;2023-02-02T12:35:55;100754.28;;;7.35;72.43
7168;BME280;3625;51.762;14.320;2023-02-02T12:38:45;100749.00;;;7.38;70.74
7168;BME280;3625;51.762;14.320;2023-02-02T12:41:34;100757.75;;;7.43;71.21
7168;BME280;3625;51.762;14.320;2023-02-02T12:44:15;100749.00;;;7.42;71.03
7168;BME280;3625;51.762;14.320;2023-02-02T12:47:08;100771.03;;;7.17;71.82
7168;BME280;3625;51.762;14.320;2023-02-02T12:52:57;100756.84;;;7.44;73.73
7168;BME280;3625;51.762;14.320;2023-02-02T12:55:42;100770.00;;;7.48;70.15
7168;BME280;3625;51.762;14.320;2023-02-02T12:58:35;100769.19;;;7.40;71.05
7168;BME280;3625;51.762;14.320;2023-02-02T13:01:21;100774.47;;;7.33;72.56
7168;BME280;3625;51.762;14.320;2023-02-02T13:04:30;100772.75;;;7.18;73.45
7168;BME280;3625;51.762;14.320;2023-02-02T13:07:36;100775.34;;;7.27;72.40
7168;BME280;3625;51.762;14.320;2023-02-02T13:10:21;100788.53;;;7.26;70.70
7168;BME280;3625;51.762;14.320;2023-02-02T13:12:55;100780.66;;;7.23;72.09
7168;BME280;3625;51.762;14.320;2023-02-02T13:15:32;100791.16;;;7.32;70.84
7168;BME280;3625;51.762;14.320;2023-02-02T13:18:05;100784.13;;;7.31;70.17
7168;BME280;3625;51.762;14.320;2023-02-02T13:20:42;100791.16;;;7.35;71.40
7168;BME280;3625;51.762;14.320;2023-02-02T13:23:36;100790.22;;;7.37;71.04
7168;BME280;3625;51.762;14.320;2023-02-02T13:26:15;100798.13;;;7.43;71.65
7168;BME280;3625;51.762;14.320;2023-02-02T13:28:53;100803.34;;;7.48;71.26
7168;BME280;3625;51.762;14.320;2023-02-02T13:31:39;100802.47;;;7.44;71.34
7168;BME280;3625;51.762;14.320;2023-02-02T13:34:23;100796.34;;;7.50;71.96
7168;BME280;3625;51.762;14.320;2023-02-02T13:37:00;100806.88;;;7.51;71.54
7168;BME280;3625;51.762;14.320;2023-02-02T13:40:33;100811.31;;;7.33;73.93
7168;BME280;3625;51.762;14.320;2023-02-02T13:43:51;100813.06;;;7.29;73.95
7168;BME280;3625;51.762;14.320;2023-02-02T13:46:33;100822.75;;;7.23;74.00
7168;BME280;3625;51.762;14.320;2023-02-02T13:49:09;100817.47;;;7.21;75.38
7168;BME280;3625;51.762;14.320;2023-02-02T13:52:02;100827.97;;;7.41;73.70
7168;BME280;3625;51.762;14.320;2023-02-02T13:55:22;100826.09;;;7.66;72.47
7168;BME280;3625;51.762;14.320;2023-02-02T14:01:20;100838.31;;;7.83;72.36
7168;BME280;3625;51.762;14.320;2023-02-02T14:03:52;100844.50;;;7.78;73.35
7168;BME280;3625;51.762;14.320;2023-02-02T14:06:23;100856.81;;;7.67;74.51
7168;BME280;3625;51.762;14.320;2023-02-02T14:09:03;100853.38;;;7.49;77.94
7168;BME280;3625;51.762;14.320;2023-02-02T14:11:39;100895.56;;;7.13;87.43
7168;BME280;3625;51.762;14.320;2023-02-02T14:14:23;100892.94;;;6.51;99.82
7168;BME280;3625;51.762;14.320;2023-02-02T14:20:42;100877.69;;;5.45;100.00
7168;BME280;3625;51.762;14.320;2023-02-02T14:23:48;100880.16;;;5.19;100.00
7168;BME280;3625;51.762;14.320;2023-02-02T14:26:42;100885.31;;;5.11;100.00
7168;BME280;3625;51.762;14.320;2023-02-02T14:29:34;100887.03;;;5.03;100.00
7168;BME280;3625;51.762;14.320;2023-02-02T14:32:27;100891.31;;;4.93;100.00
7168;BME280;3625;51.762;14.320;2023-02-02T14:38:01;100904.31;;;4.78;100.00
7168;BME280;3625;51.762;14.320;2023-02-02T14:40:47;100913.00;;;4.76;100.00
7168;BME280;3625;51.762;14.320;2023-02-02T14:43:31;100928.72;;;4.73;100.00
7168;BME280;3625;51.762;14.320;2023-02-02T14:46:37;100925.28;;;4.78;100.00
7168;BME280;3625;51.762;14.320;2023-02-02T14:49:21;100927.84;;;4.71;100.00
7168;BME280;3625;51.762;14.320;2023-02-02T14:52:00;100938.41;;;4.80;100.00